Time;durP1;ratioP1;P1;durP2;ratioP2;P2;SDS_P1;SDS_P2;PMS_P1;PMS_P2;Temp;Humidity;BMP_temperature;BMP_pressure;BME280_temperature;BME280_humidity;BME280_pressure;Samples;Min_cycle;Max_cycle;Signal;HPM_P1;HPM_P2
2023/12/20 00:02:23;;;;;;;39.67;15.90;;;;;;;4.79;76.47;97326.78;5066817;28;20197;-74
2023/12/20 00:04:51;;;;;;;49.43;16.27;;;;;;;4.87;75.48;97335.19;5065644;28;20296;-74
2023/12/20 00:07:18;;;;;;;56.83;21.03;;;;;;;4.78;75.98;97319.97;5067290;28;20225;-72
2023/12/20 00:09:47;;;;;;;61.47;21.83;;;;;;;4.68;76.24;97312.47;5065339;28;20251;-73
2023/12/20 00:12:14;;;;;;;57.40;18.67;;;;;;;4.77;75.89;97328.53;5066890;28;20288;-73
2023/12/20 00:14:42;;;;;;;58.07;20.87;;;;;;;4.63;75.98;97330.53;5066461;28;20189;-71
2023/12/20 00:17:09;;;;;;;60.43;24.00;;;;;;;4.52;76.73;97304.22;5064713;28;20572;-74
2023/12/20 00:19:36;;;;;;;41.63;21.70;;;;;;;4.90;76.31;97329.16;5048490;28;20266;-72
2023/12/20 00:22:03;;;;;;;42.00;14.60;;;;;;;4.75;76.27;97316.63;5065072;28;20289;-73
2023/12/20 00:24:30;;;;;;;40.57;13.97;;;;;;;4.39;76.79;97312.16;5066929;28;20198;-73
2023/12/20 00:26:58;;;;;;;45.27;16.53;;;;;;;4.41;77.57;97321.50;5065327;28;20613;-72
2023/12/20 00:29:27;;;;;;;35.60;13.27;;;;;;;4.15;78.48;97331.34;5066825;28;20758;-72
2023/12/20 00:31:55;;;;;;;34.37;12.87;;;;;;;4.15;78.87;97326.22;5065505;28;20683;-73
2023/12/20 00:34:22;;;;;;;36.30;13.40;;;;;;;4.25;78.50;97332.03;5066356;28;20239;-72
2023/12/20 00:36:49;;;;;;;43.53;14.73;;;;;;;4.15;77.47;97315.97;5066672;28;20217;-72
2023/12/20 00:39:17;;;;;;;47.73;16.13;;;;;;;4.31;77.50;97319.13;5065118;28;20759;-72
2023/12/20 00:41:44;;;;;;;53.43;16.93;;;;;;;4.27;77.78;97326.00;5065770;28;20319;-73
2023/12/20 00:44:11;;;;;;;46.60;14.43;;;;;;;4.21;78.01;97322.69;5068502;28;20282;-72
2023/12/20 00:46:38;;;;;;;52.33;16.40;;;;;;;3.99;78.65;97320.50;5070182;28;20236;-74
2023/12/20 00:49:05;;;;;;;49.07;14.73;;;;;;;4.16;78.59;97327.91;5068927;28;20182;-74
2023/12/20 00:51:32;;;;;;;46.70;15.10;;;;;;;4.03;78.57;97314.44;5070082;28;20201;-74
2023/12/20 00:53:59;;;;;;;40.03;15.73;;;;;;;4.00;79.20;97316.19;5070139;28;20808;-73
2023/12/20 00:56:26;;;;;;;46.87;14.77;;;;;;;3.94;79.60;97304.34;5068782;28;20238;-75
2023/12/20 00:58:53;;;;;;;50.23;24.90;;;;;;;3.77;80.11;97313.16;5068706;28;20281;-73
2023/12/20 01:01:21;;;;;;;47.50;16.13;;;;;;;3.42;79.96;97241.97;5050726;28;20193;-73
2023/12/20 01:03:51;;;;;;;170.70;87.17;;;;;;;3.80;80.18;97295.16;5069977;28;20625;-74
2023/12/20 01:06:18;;;;;;;16.77;9.90;;;;;;;3.86;80.45;97301.06;5068537;28;20626;-75
2023/12/20 01:08:45;;;;;;;21.93;11.87;;;;;;;3.91;79.98;97298.44;5069834;28;20217;-74
2023/12/20 01:11:13;;;;;;;17.53;11.13;;;;;;;4.08;79.24;97296.44;5074607;28;20591;-76
2023/12/20 01:13:40;;;;;;;65.63;30.57;;;;;;;4.14;79.54;97283.53;5069331;28;20616;-75
2023/12/20 01:16:10;;;;;;;25.20;13.73;;;;;;;3.68;79.24;97213.41;5069620;28;20648;-75
2023/12/20 01:18:38;;;;;;;20.70;12.10;;;;;;;4.23;79.10;97274.81;5066885;28;20223;-73
2023/12/20 01:21:06;;;;;;;16.67;11.53;;;;;;;4.17;77.86;97224.53;5068769;28;20200;-73
2023/12/20 01:23:33;;;;;;;19.83;12.60;;;;;;;4.34;78.27;97258.41;5068136;28;20698;-75
2023/12/20 01:26:00;;;;;;;16.83;10.97;;;;;;;4.43;78.25;97253.09;5069407;28;20233;-74
2023/12/20 01:28:27;;;;;;;34.17;19.97;;;;;;;4.51;77.29;97248.69;5068912;28;20220;-72
2023/12/20 01:30:54;;;;;;;40.23;16.03;;;;;;;4.48;77.46;97250.44;5067050;28;20213;-73
2023/12/20 01:33:21;;;;;;;18.57;12.33;;;;;;;4.38;77.72;97265.16;5069597;28;20245;-72
2023/12/20 01:35:48;;;;;;;139.77;69.90;;;;;;;4.26;78.07;97252.56;5067910;28;20618;-74
2023/12/20 01:38:18;;;;;;;69.03;29.07;;;;;;;4.25;77.71;97253.41;5069296;28;20195;-73
2023/12/20 01:40:45;;;;;;;65.57;27.33;;;;;;;3.99;77.70;97229.97;5067825;28;20182;-73
2023/12/20 01:43:13;;;;;;;33.40;19.50;;;;;;;3.88;77.77;97214.78;5069129;28;20647;-74
2023/12/20 01:45:41;;;;;;;157.20;82.07;;;;;;;4.00;78.38;97229.09;5067624;28;20255;-74
2023/12/20 01:48:10;;;;;;;16.33;9.87;;;;;;;3.55;77.72;97160.72;5067923;28;20636;-74
2023/12/20 01:50:38;;;;;;;13.00;9.47;;;;;;;4.00;76.92;97227.38;5069004;28;20203;-75
2023/12/20 01:53:09;;;;;;;19.03;10.77;;;;;;;3.98;77.47;97223.16;5067446;28;20264;-74
2023/12/20 01:55:41;;;;;;;17.83;10.77;;;;;;;3.74;77.54;97221.00;5068028;28;20208;-72
2023/12/20 01:58:09;;;;;;;13.13;8.93;;;;;;;3.66;77.90;97210.88;5067762;28;20213;-74
2023/12/20 02:00:37;;;;;;;16.07;9.93;;;;;;;3.61;78.11;97211.81;5051121;28;20272;-74
2023/12/20 02:03:05;;;;;;;14.00;9.33;;;;;;;3.63;78.06;97195.56;5068539;28;20205;-73
2023/12/20 02:05:35;;;;;;;16.30;10.10;;;;;;;3.66;77.43;97205.78;5068158;28;20283;-71
2023/12/20 02:08:02;;;;;;;18.03;9.40;;;;;;;3.57;77.34;97192.25;5074192;28;20248;-72
2023/12/20 02:10:30;;;;;;;14.60;9.03;;;;;;;3.24;79.14;97197.03;5067211;28;20226;-74
2023/12/20 02:12:57;;;;;;;15.47;9.27;;;;;;;3.06;79.81;97166.59;5068763;28;20199;-73
2023/12/20 02:15:25;;;;;;;13.83;7.80;;;;;;;2.79;80.72;97164.44;5065739;28;20579;-72
2023/12/20 02:17:52;;;;;;;11.63;7.40;;;;;;;2.76;81.58;97187.47;5068398;28;20229;-73
2023/12/20 02:20:39;;;;;;;12.30;7.57;;;;;;;2.68;82.87;97186.72;5053293;28;20192;-71
2023/12/20 02:23:06;;;;;;;21.90;9.73;;;;;;;2.65;82.01;97184.22;5066957;28;20637;-73
2023/12/20 02:25:33;;;;;;;45.97;14.83;;;;;;;2.57;83.41;97164.72;5068514;28;20218;-72
2023/12/20 02:28:02;;;;;;;32.93;12.50;;;;;;;2.67;83.57;97171.41;5066688;28;20229;-72
2023/12/20 02:30:29;;;;;;;56.10;31.90;;;;;;;2.72;83.18;97162.81;5066591;28;20692;-72
2023/12/20 02:32:56;;;;;;;37.03;14.10;;;;;;;2.63;83.50;97160.38;5066672;28;20193;-72
2023/12/20 02:35:23;;;;;;;20.67;10.27;;;;;;;2.60;84.25;97157.84;5067556;28;20189;-73
2023/12/20 02:37:50;;;;;;;20.97;9.27;;;;;;;2.55;84.26;97164.75;5067503;28;20197;-74
2023/12/20 02:40:17;;;;;;;14.40;8.57;;;;;;;2.47;85.04;97156.34;5066958;28;20211;-73
2023/12/20 02:42:45;;;;;;;12.77;8.37;;;;;;;2.55;84.25;97169.00;5067932;28;20203;-73
2023/12/20 02:45:12;;;;;;;17.17;9.50;;;;;;;2.71;84.13;97162.84;5065155;28;20635;-75
2023/12/20 02:47:39;;;;;;;18.53;10.67;;;;;;;2.89;83.47;97157.47;5067610;28;20236;-74
2023/12/20 02:50:07;;;;;;;15.03;8.47;;;;;;;2.84;83.80;97149.03;5066469;28;20239;-73
2023/12/20 02:52:34;;;;;;;14.77;8.87;;;;;;;3.02;83.07;97147.06;5067523;28;20614;-74
2023/12/20 02:55:01;;;;;;;14.77;9.47;;;;;;;3.14;82.41;97144.31;5067289;28;20284;-74
2023/12/20 02:57:30;;;;;;;20.73;10.10;;;;;;;3.14;82.41;97138.34;5066352;28;20201;-73
2023/12/20 02:59:57;;;;;;;19.53;10.20;;;;;;;3.17;82.56;97159.59;5067505;28;20280;-73
2023/12/20 03:02:24;;;;;;;19.70;10.83;;;;;;;3.15;82.23;97125.50;5066781;28;20177;-72
2023/12/20 03:04:51;;;;;;;16.80;10.13;;;;;;;3.21;82.17;97133.09;5068740;28;20195;-72
2023/12/20 03:07:18;;;;;;;16.20;9.80;;;;;;;3.15;82.74;97137.50;5065786;28;20230;-74
2023/12/20 03:09:45;;;;;;;16.20;9.73;;;;;;;3.06;82.50;97133.34;5067091;28;20836;-72
2023/12/20 03:12:32;;;;;;;17.57;10.40;;;;;;;2.94;83.51;97135.25;5065126;28;20193;-72
2023/12/20 03:14:59;;;;;;;22.77;11.80;;;;;;;3.04;83.12;97122.28;5065941;28;20193;-73
2023/12/20 03:17:26;;;;;;;27.33;12.07;;;;;;;3.00;82.96;97104.47;5067104;28;20205;-73
2023/12/20 03:19:53;;;;;;;21.90;10.80;;;;;;;3.05;83.09;97126.53;5065795;28;20244;-72
2023/12/20 03:22:20;;;;;;;24.57;11.73;;;;;;;3.19;82.29;97118.66;5067320;28;20203;-74
2023/12/20 03:24:47;;;;;;;21.37;11.00;;;;;;;3.09;82.72;97112.00;5065679;28;20243;-73
2023/12/20 03:27:14;;;;;;;22.80;12.83;;;;;;;3.18;83.01;97116.94;5066622;28;20258;-72
2023/12/20 03:29:42;;;;;;;17.87;10.37;;;;;;;3.11;83.42;97126.44;5066819;28;20185;-72
2023/12/20 03:32:09;;;;;;;20.87;11.23;;;;;;;3.23;82.52;97116.03;5065318;28;20837;-72
2023/12/20 03:34:36;;;;;;;19.87;10.90;;;;;;;3.04;83.21;97116.31;5066669;28;20190;-73
2023/12/20 03:37:03;;;;;;;17.20;10.27;;;;;;;3.04;82.89;97119.75;5065251;28;20206;-74
2023/12/20 03:39:31;;;;;;;17.87;9.87;;;;;;;3.28;82.53;97106.56;5066472;28;20269;-72
2023/12/20 03:41:58;;;;;;;13.80;9.07;;;;;;;2.98;83.44;97093.41;5065161;28;20212;-72
2023/12/20 03:44:25;;;;;;;11.90;8.37;;;;;;;3.06;82.87;97110.31;5066703;28;20192;-74
2023/12/20 03:46:52;;;;;;;16.77;8.60;;;;;;;2.96;82.97;97092.59;5066103;28;20537;-73
2023/12/20 03:49:19;;;;;;;16.60;9.23;;;;;;;2.96;83.46;97107.94;5065434;28;20221;-74
2023/12/20 03:51:46;;;;;;;16.43;9.27;;;;;;;2.79;84.09;97094.53;5066630;28;20197;-73
2023/12/20 03:54:15;;;;;;;16.63;10.30;;;;;;;2.81;83.94;97090.25;5065344;28;20203;-73
2023/12/20 03:56:42;;;;;;;15.10;9.13;;;;;;;2.71;84.72;97092.09;5066596;28;20200;-72
2023/12/20 03:59:09;;;;;;;17.33;9.23;;;;;;;2.76;84.79;97092.88;5074114;28;20231;-72
2023/12/20 04:01:36;;;;;;;19.60;9.97;;;;;;;2.76;84.85;97100.53;5066160;28;20684;-72
2023/12/20 04:04:03;;;;;;;11.27;8.30;;;;;;;2.67;85.23;97080.22;5066320;28;20191;-72
2023/12/20 04:06:31;;;;;;;15.90;9.27;;;;;;;2.75;85.80;97083.53;5065388;28;20188;-71
2023/12/20 04:08:58;;;;;;;19.30;10.00;;;;;;;2.72;85.33;97059.72;5066500;28;20227;-72
2023/12/20 04:11:25;;;;;;;21.03;10.33;;;;;;;2.66;85.10;97060.63;5065128;28;20245;-72
2023/12/20 04:13:52;;;;;;;19.97;9.93;;;;;;;2.89;84.76;97071.38;5066496;28;20727;-72
2023/12/20 04:16:19;;;;;;;18.27;9.70;;;;;;;2.98;83.93;97076.34;5063330;28;20718;-72
2023/12/20 04:18:46;;;;;;;15.33;9.10;;;;;;;2.93;84.22;97072.16;5066154;28;20192;-72
2023/12/20 04:21:13;;;;;;;13.47;8.30;;;;;;;3.16;83.36;97068.38;5065838;28;20229;-72
2023/12/20 04:23:40;;;;;;;14.37;8.47;;;;;;;2.87;83.35;97021.97;5065517;28;20204;-72
2023/12/20 04:26:07;;;;;;;13.87;8.97;;;;;;;3.22;82.31;97067.41;5066175;28;20201;-74
2023/12/20 04:28:34;;;;;;;15.83;8.80;;;;;;;3.19;82.53;97078.53;5064661;28;20233;-74
2023/12/20 04:31:02;;;;;;;17.77;9.40;;;;;;;2.98;82.32;97070.38;5066079;28;20213;-74
2023/12/20 04:33:29;;;;;;;17.17;8.23;;;;;;;3.02;82.75;97077.13;5064871;28;20187;-72
2023/12/20 04:35:57;;;;;;;14.23;7.17;;;;;;;3.01;82.97;97066.06;5066213;28;20184;-73
2023/12/20 04:38:24;;;;;;;11.93;6.43;;;;;;;2.70;83.67;97067.38;5065448;28;20200;-75
2023/12/20 04:40:51;;;;;;;11.83;7.27;;;;;;;2.78;83.61;97078.34;5064233;28;20193;-73
2023/12/20 04:43:18;;;;;;;11.40;6.50;;;;;;;2.76;83.94;97085.19;5065807;28;20224;-74
2023/12/20 04:45:46;;;;;;;12.03;7.17;;;;;;;2.98;83.61;97086.59;5064714;28;20192;-74
2023/12/20 04:48:13;;;;;;;14.47;8.30;;;;;;;3.07;82.76;97086.41;5065694;28;20250;-73
2023/12/20 04:50:42;;;;;;;12.67;7.70;;;;;;;3.03;81.73;97078.84;5065419;28;20266;-73
2023/12/20 04:53:09;;;;;;;15.67;7.17;;;;;;;3.18;81.84;97096.47;5076700;28;20233;-73
2023/12/20 04:55:36;;;;;;;12.97;7.03;;;;;;;3.21;80.94;97084.47;5073983;28;20205;-73
2023/12/20 04:58:03;;;;;;;11.60;7.47;;;;;;;3.21;80.41;97084.47;5075465;28;20196;-74
2023/12/20 05:00:31;;;;;;;15.43;7.03;;;;;;;2.97;81.60;97079.75;5066945;28;20288;-74
2023/12/20 05:02:58;;;;;;;14.30;7.53;;;;;;;3.12;81.21;97071.84;5064893;28;20232;-72
2023/12/20 05:05:25;;;;;;;17.00;8.77;;;;;;;3.16;80.57;97086.28;5066055;28;20209;-73
2023/12/20 05:07:52;;;;;;;13.07;8.03;;;;;;;2.98;81.03;97070.38;5062946;28;20217;-73
2023/12/20 05:10:19;;;;;;;13.97;8.77;;;;;;;2.90;81.70;97074.78;5066236;28;20288;-74
2023/12/20 05:12:47;;;;;;;14.87;8.10;;;;;;;2.65;82.55;97071.75;5064783;28;20197;-74
2023/12/20 05:15:14;;;;;;;14.07;8.83;;;;;;;2.65;83.17;97066.63;5065462;28;20225;-72
2023/12/20 05:17:41;;;;;;;10.77;6.80;;;;;;;2.55;84.56;97059.97;5065396;28;20279;-74
2023/12/20 05:20:09;;;;;;;11.60;7.57;;;;;;;2.41;84.45;97049.91;5064632;28;20272;-74
2023/12/20 05:22:36;;;;;;;11.60;7.67;;;;;;;2.45;85.50;97050.75;5066136;28;20197;-72
2023/12/20 05:25:04;;;;;;;8.37;6.30;;;;;;;2.58;84.80;97054.78;5062777;28;20609;-72
2023/12/20 05:27:31;;;;;;;12.83;8.13;;;;;;;2.85;84.47;97059.50;5065568;28;20264;-73
2023/12/20 05:29:58;;;;;;;16.30;9.93;;;;;;;3.15;83.68;97064.13;5065555;28;20277;-74
2023/12/20 05:32:25;;;;;;;14.47;9.53;;;;;;;3.15;82.81;97058.19;5068658;28;20649;-72
2023/12/20 05:34:52;;;;;;;18.27;10.70;;;;;;;3.20;82.09;97046.13;5066978;28;20205;-74
2023/12/20 05:37:20;;;;;;;24.37;12.97;;;;;;;3.38;81.28;97047.56;5067993;28;20598;-73
2023/12/20 05:39:47;;;;;;;36.63;16.17;;;;;;;3.33;80.94;97032.28;5068849;28;20693;-72
2023/12/20 05:42:14;;;;;;;36.77;17.93;;;;;;;3.43;79.83;97044.03;5067653;28;20648;-72
2023/12/20 05:44:41;;;;;;;52.27;21.07;;;;;;;3.41;79.32;97029.56;5067386;28;20696;-72
2023/12/20 05:47:08;;;;;;;40.17;18.27;;;;;;;3.08;79.70;97034.41;5067659;28;20277;-74
2023/12/20 05:49:35;;;;;;;32.73;16.90;;;;;;;2.91;80.39;97032.97;5069083;28;20248;-72
2023/12/20 05:52:02;;;;;;;29.73;16.60;;;;;;;2.79;80.18;96998.22;5067302;28;20283;-74
2023/12/20 05:54:30;;;;;;;28.57;16.53;;;;;;;2.78;80.81;97022.09;5067984;28;20191;-74
2023/12/20 05:56:57;;;;;;;31.63;17.87;;;;;;;2.73;80.93;97021.34;5068419;28;20196;-70
2023/12/20 05:59:24;;;;;;;50.23;21.67;;;;;;;2.94;80.95;97026.13;5067382;28;20228;-74
2023/12/20 06:01:51;;;;;;;38.93;19.50;;;;;;;3.04;80.22;97025.09;5068318;28;20581;-72
2023/12/20 06:04:18;;;;;;;40.53;18.67;;;;;;;2.99;79.33;97005.56;5066824;28;20205;-72
2023/12/20 06:06:48;;;;;;;35.57;19.87;;;;;;;3.28;78.59;97032.34;5068184;28;20196;-73
2023/12/20 06:09:15;;;;;;;30.67;16.87;;;;;;;3.12;77.14;97030.94;5067525;28;20221;-71
2023/12/20 06:11:42;;;;;;;34.10;19.00;;;;;;;2.93;77.47;97021.00;5067471;28;20694;-71
2023/12/20 06:14:09;;;;;;;30.67;16.93;;;;;;;2.94;77.66;97028.69;5068168;28;20185;-71
2023/12/20 06:16:37;;;;;;;32.97;18.27;;;;;;;2.56;78.35;96976.44;5066893;28;20200;-71
2023/12/20 06:19:04;;;;;;;30.00;16.13;;;;;;;2.87;78.22;97027.06;5068171;28;20189;-73
2023/12/20 06:21:31;;;;;;;26.67;15.63;;;;;;;2.93;78.46;97026.97;5066502;28;20193;-71
2023/12/20 06:24:01;;;;;;;21.23;13.50;;;;;;;3.03;78.14;97018.28;5068002;28;20264;-73
2023/12/20 06:26:28;;;;;;;22.60;12.90;;;;;;;2.97;78.18;96995.38;5067258;28;20255;-74
2023/12/20 06:28:55;;;;;;;20.67;11.77;;;;;;;3.36;77.45;97014.28;5066122;28;20284;-77
2023/12/20 06:31:23;;;;;;;24.50;12.67;;;;;;;3.27;77.20;96988.88;5068114;28;20214;-76
2023/12/20 06:33:57;;;;;;;22.87;15.40;;;;;;;3.45;76.92;97014.13;5067111;28;20194;-76
2023/12/20 06:36:26;;;;;;;27.23;15.10;;;;;;;3.52;77.65;97027.66;5068105;28;20293;-74
2023/12/20 06:38:53;;;;;;;33.63;16.43;;;;;;;3.62;76.99;97027.47;5066734;28;20190;-75
2023/12/20 06:41:21;;;;;;;25.80;16.10;;;;;;;3.71;76.38;97011.09;5066729;28;20276;-75
2023/12/20 06:43:48;;;;;;;25.60;15.93;;;;;;;3.81;76.55;97020.28;5068081;28;20198;-74
2023/12/20 06:46:16;;;;;;;28.10;16.27;;;;;;;3.69;76.56;97016.22;5071662;28;20276;-75
2023/12/20 06:48:45;;;;;;;26.83;17.80;;;;;;;3.55;76.79;96990.03;5072301;28;20213;-72
2023/12/20 06:51:14;;;;;;;32.67;17.50;;;;;;;3.32;78.04;96999.03;5082616;28;20201;-72
2023/12/20 06:53:42;;;;;;;28.30;16.13;;;;;;;3.53;77.53;97009.72;5079699;28;20719;-74
2023/12/20 06:56:11;;;;;;;25.23;14.73;;;;;;;3.57;77.99;97005.38;5067799;28;20254;-75
2023/12/20 06:58:43;;;;;;;25.07;14.93;;;;;;;3.68;77.85;96998.34;5068096;28;20638;-74
2023/12/20 07:01:12;;;;;;;19.07;12.50;;;;;;;3.58;78.00;96968.66;5067441;28;20696;-73
2023/12/20 07:03:41;;;;;;;20.00;12.77;;;;;;;3.91;78.32;97002.13;5066876;28;20201;-71
2023/12/20 07:06:09;;;;;;;19.47;13.33;;;;;;;3.97;77.70;96986.63;5066134;28;20201;-75
2023/12/20 07:08:39;;;;;;;22.70;12.00;;;;;;;4.04;76.82;96977.09;5065882;28;20293;-73
2023/12/20 07:11:06;;;;;;;18.17;11.97;;;;;;;3.96;76.48;96943.94;5067593;28;20697;-74
2023/12/20 07:13:34;;;;;;;17.20;11.27;;;;;;;3.87;77.10;96917.69;5064617;28;20197;-72
2023/12/20 07:16:02;;;;;;;18.10;12.10;;;;;;;4.20;77.02;96973.34;5065628;28;20239;-74
2023/12/20 07:18:30;;;;;;;20.07;11.53;;;;;;;4.56;75.63;96995.56;5065650;28;20267;-74
2023/12/20 07:20:57;;;;;;;22.33;13.73;;;;;;;4.43;76.25;96965.94;5066596;28;20594;-75
2023/12/20 07:23:25;;;;;;;22.97;14.87;;;;;;;4.76;76.89;96966.91;5065842;28;20283;-75
2023/12/20 07:25:53;;;;;;;21.07;13.73;;;;;;;4.67;75.90;96942.31;5064996;28;20262;-73
2023/12/20 07:28:20;;;;;;;19.60;12.47;;;;;;;4.61;77.37;96932.22;5067374;28;20252;-76
2023/12/20 07:30:48;;;;;;;24.40;14.10;;;;;;;5.12;76.11;96985.66;5066822;28;20191;-71
2023/12/20 07:33:16;;;;;;;21.57;13.77;;;;;;;5.24;75.92;96978.50;5070004;28;20197;-72
2023/12/20 07:35:45;;;;;;;18.30;12.77;;;;;;;5.37;75.68;96977.28;5066116;28;20207;-73
2023/12/20 07:38:13;;;;;;;21.40;12.47;;;;;;;5.17;76.16;96978.69;5065710;28;20313;-74
2023/12/20 07:40:42;;;;;;;24.70;12.63;;;;;;;5.19;76.41;96958.97;5067971;28;20196;-76
2023/12/20 07:43:11;;;;;;;17.43;12.30;;;;;;;5.18;76.50;96977.78;5070160;28;20199;-76
2023/12/20 07:45:38;;;;;;;19.07;12.60;;;;;;;5.11;77.47;96956.56;5049810;28;20202;-74
2023/12/20 07:48:07;;;;;;;20.00;12.67;;;;;;;5.14;77.21;96946.25;5065665;28;20187;-75
2023/12/20 07:50:35;;;;;;;15.93;10.27;;;;;;;5.40;77.30;96954.09;5067059;28;20625;-73
2023/12/20 07:53:03;;;;;;;10.83;8.80;;;;;;;5.48;77.36;96971.88;5047314;28;20222;-76
2023/12/20 07:55:31;;;;;;;13.77;9.20;;;;;;;5.68;76.76;96947.34;5064814;28;20621;-74
2023/12/20 07:57:59;;;;;;;13.37;9.23;;;;;;;5.88;76.85;96961.34;5067367;28;20198;-74
2023/12/20 08:00:30;;;;;;;15.03;9.20;;;;;;;5.78;76.52;96958.19;5048415;28;20205;-76
2023/12/20 08:02:57;;;;;;;12.57;8.17;;;;;;;5.94;75.45;96980.00;5049435;28;20202;-77
2023/12/20 08:05:25;;;;;;;14.33;7.67;;;;;;;5.98;75.24;96955.91;5065426;28;20222;-75
2023/12/20 08:07:54;;;;;;;11.50;7.47;;;;;;;5.88;76.18;96958.78;5064843;28;20674;-75
2023/12/20 08:10:22;;;;;;;11.87;7.27;;;;;;;5.95;75.46;96975.72;5065882;28;20829;-75
2023/12/20 08:12:51;;;;;;;12.03;7.83;;;;;;;6.17;74.78;96958.78;5078145;28;20548;-72
2023/12/20 08:15:18;;;;;;;11.07;7.33;;;;;;;6.12;76.02;96968.38;5082635;28;20223;-76
2023/12/20 08:17:45;;;;;;;9.07;6.97;;;;;;;6.14;74.84;96967.41;5067818;28;20211;-75
2023/12/20 08:20:13;;;;;;;9.47;6.83;;;;;;;6.33;75.64;96955.69;5067173;28;20221;-73
2023/12/20 08:22:53;;;;;;;13.83;8.37;;;;;;;6.26;75.02;96938.78;5065216;28;20277;-73
2023/12/20 08:25:21;;;;;;;12.10;7.47;;;;;;;6.54;74.81;96960.19;5065999;28;20217;-73
2023/12/20 08:27:49;;;;;;;13.63;8.47;;;;;;;6.62;74.33;96910.22;5065790;28;20218;-77
2023/12/20 08:30:20;;;;;;;14.57;7.33;;;;;;;6.50;75.46;96920.03;5064365;28;20308;-76
2023/12/20 08:32:48;;;;;;;13.30;7.63;;;;;;;6.66;74.24;96935.78;5064116;28;20212;-76
2023/12/20 08:35:16;;;;;;;11.90;8.53;;;;;;;6.78;74.31;96921.72;5063201;28;20196;-75
2023/12/20 08:37:43;;;;;;;14.07;8.83;;;;;;;6.87;73.29;96911.09;5064211;28;20201;-74
2023/12/20 08:40:10;;;;;;;11.23;8.53;;;;;;;7.05;73.92;96923.34;5065051;28;20209;-73
2023/12/20 08:42:38;;;;;;;11.50;9.20;;;;;;;6.95;74.49;96916.81;5065857;28;20599;-74
2023/12/20 08:45:06;;;;;;;14.33;8.43;;;;;;;7.02;73.27;96895.16;5066587;28;20196;-77
2023/12/20 08:47:34;;;;;;;13.27;8.47;;;;;;;7.18;72.82;96891.13;5065293;28;20208;-75
2023/12/20 08:50:02;;;;;;;12.47;8.47;;;;;;;7.20;73.07;96899.66;5066993;28;20723;-75
2023/12/20 08:52:31;;;;;;;17.60;9.70;;;;;;;7.42;72.87;96892.84;5065248;28;20232;-74
2023/12/20 08:55:00;;;;;;;18.10;11.17;;;;;;;7.64;72.11;96901.50;5068277;28;20281;-76
2023/12/20 08:57:31;;;;;;;17.27;10.80;;;;;;;7.72;71.28;96880.59;5067270;28;20208;-75
2023/12/20 09:00:00;;;;;;;14.97;10.97;;;;;;;7.99;70.74;96887.31;5066314;28;20197;-75
2023/12/20 09:02:31;;;;;;;27.30;10.70;;;;;;;8.16;70.70;96890.91;5066063;28;20280;-77
2023/12/20 09:04:59;;;;;;;19.53;11.57;;;;;;;8.17;69.32;96879.69;5066366;28;20204;-75
2023/12/20 09:07:31;;;;;;;18.30;12.47;;;;;;;8.12;70.49;96866.13;5069699;28;20209;-74
2023/12/20 09:09:58;;;;;;;19.33;13.47;;;;;;;8.29;69.72;96869.81;5066663;28;20913;-75
2023/12/20 09:12:26;;;;;;;18.90;12.23;;;;;;;8.59;69.31;96859.13;5051685;28;20202;-75
2023/12/20 09:14:54;;;;;;;18.17;11.80;;;;;;;8.45;68.34;96835.59;5068535;28;20609;-75
2023/12/20 09:17:25;;;;;;;24.93;12.23;;;;;;;8.46;67.59;96810.63;5069107;28;20189;-75
2023/12/20 09:19:54;;;;;;;17.03;11.47;;;;;;;8.47;67.94;96809.75;5035198;28;20201;-76
2023/12/20 09:22:21;;;;;;;23.07;12.17;;;;;;;8.52;67.74;96820.72;5068174;28;20279;-75
2023/12/20 09:24:48;;;;;;;23.93;14.93;;;;;;;8.76;67.59;96824.84;5069536;28;20277;-74
2023/12/20 09:27:17;;;;;;;27.30;14.30;;;;;;;8.76;68.12;96810.19;5067663;28;20286;-75
2023/12/20 09:29:44;;;;;;;20.60;13.20;;;;;;;8.96;68.28;96811.94;5069476;28;20796;-77
2023/12/20 09:32:12;;;;;;;21.73;13.70;;;;;;;9.07;67.55;96794.22;5068322;28;20568;-79
2023/12/20 09:34:41;;;;;;;21.10;13.77;;;;;;;9.16;67.71;96809.34;5054303;28;20201;-73
2023/12/20 09:37:08;;;;;;;22.67;12.20;;;;;;;9.22;66.90;96809.06;5074761;28;20197;-76
2023/12/20 09:39:36;;;;;;;18.20;11.90;;;;;;;9.21;65.90;96802.19;5076412;28;20185;-72
2023/12/20 09:42:04;;;;;;;18.83;12.67;;;;;;;9.12;65.78;96771.63;5069862;28;20192;-74
2023/12/20 09:44:34;;;;;;;26.67;13.57;;;;;;;9.36;65.90;96803.28;5066722;28;20181;-74
2023/12/20 09:47:04;;;;;;;17.13;11.67;;;;;;;9.30;65.63;96790.63;5069140;28;20232;-75
2023/12/20 09:49:33;;;;;;;29.00;12.53;;;;;;;9.45;64.83;96787.38;5067977;28;20255;-77
2023/12/20 09:52:01;;;;;;;17.57;11.70;;;;;;;9.47;64.41;96767.44;5068370;28;20311;-76
2023/12/20 09:54:30;;;;;;;18.77;10.67;;;;;;;9.40;64.88;96758.28;5068505;28;20193;-77
2023/12/20 09:56:57;;;;;;;16.87;11.13;;;;;;;9.48;64.69;96763.97;5067768;28;20268;-77
2023/12/20 09:59:25;;;;;;;21.10;11.67;;;;;;;9.30;64.67;96716.53;5068676;28;20616;-75
2023/12/20 10:01:56;;;;;;;19.97;11.27;;;;;;;9.47;64.48;96729.53;5067314;28;20288;-76
2023/12/20 10:04:25;;;;;;;17.87;11.57;;;;;;;9.58;64.36;96754.88;5050537;28;20220;-78
2023/12/20 10:06:56;;;;;;;18.87;10.63;;;;;;;9.02;65.31;96731.63;5068374;28;20186;-75
2023/12/20 10:09:25;;;;;;;19.00;11.23;;;;;;;9.29;64.97;96742.47;5068202;28;20587;-75
2023/12/20 10:11:54;;;;;;;16.43;10.17;;;;;;;9.27;64.63;96745.13;5067397;28;20276;-74
2023/12/20 10:14:24;;;;;;;17.57;10.33;;;;;;;7.72;64.99;96481.97;5049304;28;20288;-75
2023/12/20 10:16:51;;;;;;;17.10;11.03;;;;;;;9.23;65.46;96716.91;5067971;28;20265;-75
2023/12/20 10:19:20;;;;;;;19.90;12.20;;;;;;;9.30;65.69;96715.69;5075534;28;20221;-71
2023/12/20 10:21:48;;;;;;;18.27;10.97;;;;;;;9.33;66.34;96715.56;5084800;28;20300;-72
2023/12/20 10:24:39;;;;;;;13.17;7.30;;;;;;;9.47;63.95;96720.94;5067886;28;20641;-73
2023/12/20 10:27:08;;;;;;;15.87;8.87;;;;;;;9.33;64.71;96713.81;5065724;28;20763;-76
2023/12/20 10:29:38;;;;;;;25.33;10.57;;;;;;;9.37;64.81;96710.19;5068172;28;20217;-74
2023/12/20 10:32:27;;;;;;;74.03;49.77;;;;;;;9.33;65.08;96707.81;5048918;28;20190;-75
2023/12/20 10:34:56;;;;;;;98.33;67.40;;;;;;;9.44;64.69;96700.38;5071145;28;21073;-74
2023/12/20 10:37:28;;;;;;;13.30;8.77;;;;;;;9.33;64.47;96687.16;5068278;28;20710;-75
2023/12/20 10:40:00;;;;;;;14.13;8.70;;;;;;;9.31;64.50;96687.22;5049290;28;20197;-73
2023/12/20 10:42:30;;;;;;;15.00;8.57;;;;;;;9.44;64.53;96683.13;5067555;28;20243;-75
2023/12/20 10:44:59;;;;;;;15.73;9.03;;;;;;;9.21;65.91;96672.22;5064561;28;20209;-74
2023/12/20 10:47:30;;;;;;;18.87;9.77;;;;;;;9.40;65.84;96673.00;5067463;28;20660;-71
2023/12/20 10:49:59;;;;;;;18.97;10.23;;;;;;;9.48;66.64;96645.91;5064824;28;20225;-74
2023/12/20 10:52:29;;;;;;;29.43;12.50;;;;;;;9.84;65.32;96679.50;5067630;28;20240;-76
2023/12/20 10:54:56;;;;;;;16.43;9.17;;;;;;;9.83;64.89;96678.66;5066928;28;20206;-77
2023/12/20 10:57:28;;;;;;;40.03;14.47;;;;;;;10.00;64.45;96679.56;5066353;28;20482;-77
2023/12/20 10:59:58;;;;;;;18.50;9.53;;;;;;;10.03;63.55;96680.28;5071545;28;20189;-73
2023/12/20 11:02:25;;;;;;;39.10;13.40;;;;;;;9.98;63.84;96681.41;5083011;28;20201;-72
2023/12/20 11:05:01;;;;;;;31.43;16.33;;;;;;;9.81;64.49;96664.97;5073114;28;20229;-77
2023/12/20 11:07:38;;;;;;;25.50;13.17;;;;;;;10.16;64.20;96662.44;5066733;28;20568;-75
2023/12/20 11:10:23;;;;;;;30.07;13.33;;;;;;;10.28;64.13;96664.41;5064859;28;20239;-75
2023/12/20 11:13:01;;;;;;;25.13;11.10;;;;;;;10.40;63.73;96668.94;5067154;28;20637;-72
2023/12/20 11:15:30;;;;;;;32.97;13.27;;;;;;;10.55;63.42;96663.00;5064203;28;20576;-74
2023/12/20 11:17:58;;;;;;;40.00;14.30;;;;;;;10.83;62.83;96657.19;5065458;28;20217;-76
2023/12/20 11:20:37;;;;;;;28.17;11.87;;;;;;;10.90;62.08;96646.41;5066355;28;20229;-76
2023/12/20 11:23:07;;;;;;;21.63;10.80;;;;;;;11.08;61.13;96642.03;5065631;28;20258;-76
2023/12/20 11:25:54;;;;;;;56.60;20.87;;;;;;;11.11;61.25;96627.13;5066698;28;20633;-75
2023/12/20 11:28:24;;;;;;;39.57;13.77;;;;;;;11.29;60.76;96644.25;5068773;28;20576;-75
2023/12/20 11:30:55;;;;;;;21.83;11.40;;;;;;;11.14;61.09;96633.91;5071459;28;20219;-75
2023/12/20 11:33:38;;;;;;;16.90;10.43;;;;;;;11.32;60.85;96641.53;5072218;28;20272;-74